sensor_id;sensor_type;location;lat;lon;timestamp;P1;durP1;ratioP1;P2;durP2;ratioP2
72194;SDS011;60095;50.180;9.032;2022-09-28T00:01:56;2.15;;;1.33;;
72194;SDS011;60095;50.180;9.032;2022-09-28T00:04:22;1.77;;;1.63;;
72194;SDS011;60095;50.180;9.032;2022-09-28T00:06:50;10.70;;;2.30;;
72194;SDS011;60095;50.180;9.032;2022-09-28T00:09:16;3.10;;;1.38;;
72194;SDS011;60095;50.180;9.032;2022-09-28T00:11:43;1.80;;;1.27;;
72194;SDS011;60095;50.180;9.032;2022-09-28T00:14:10;4.93;;;1.95;;
72194;SDS011;60095;50.180;9.032;2022-09-28T00:16:37;2.05;;;0.95;;
72194;SDS011;60095;50.180;9.032;2022-09-28T00:19:04;1.13;;;0.90;;
72194;SDS011;60095;50.180;9.032;2022-09-28T00:21:33;3.63;;;0.98;;
72194;SDS011;60095;50.180;9.032;2022-09-28T00:24:01;1.17;;;0.82;;
72194;SDS011;60095;50.180;9.032;2022-09-28T00:26:41;3.58;;;1.50;;
72194;SDS011;60095;50.180;9.032;2022-09-28T00:29:12;1.60;;;1.23;;
72194;SDS011;60095;50.180;9.032;2022-09-28T00:31:40;2.05;;;1.45;;
72194;SDS011;60095;50.180;9.032;2022-09-28T00:34:06;1.98;;;1.45;;
72194;SDS011;60095;50.180;9.032;2022-09-28T00:36:32;1.25;;;1.15;;
72194;SDS011;60095;50.180;9.032;2022-09-28T00:39:03;1.55;;;1.13;;
72194;SDS011;60095;50.180;9.032;2022-09-28T00:41:29;2.05;;;1.20;;
72194;SDS011;60095;50.180;9.032;2022-09-28T00:46:37;1.75;;;1.27;;
72194;SDS011;60095;50.180;9.032;2022-09-28T00:49:04;2.10;;;1.33;;
72194;SDS011;60095;50.180;9.032;2022-09-28T00:51:31;1.70;;;1.15;;
72194;SDS011;60095;50.180;9.032;2022-09-28T00:53:58;2.13;;;1.38;;
72194;SDS011;60095;50.180;9.032;2022-09-28T00:56:28;0.95;;;0.88;;
72194;SDS011;60095;50.180;9.032;2022-09-28T00:58:56;1.92;;;1.42;;
72194;SDS011;60095;50.180;9.032;2022-09-28T01:01:23;6.28;;;2.30;;
72194;SDS011;60095;50.180;9.032;2022-09-28T01:03:50;1.80;;;1.33;;
72194;SDS011;60095;50.180;9.032;2022-09-28T01:06:17;2.22;;;1.27;;
72194;SDS011;60095;50.180;9.032;2022-09-28T01:08:44;2.15;;;1.40;;
72194;SDS011;60095;50.180;9.032;2022-09-28T01:11:11;3.35;;;1.73;;
72194;SDS011;60095;50.180;9.032;2022-09-28T01:13:39;1.85;;;1.50;;
72194;SDS011;60095;50.180;9.032;2022-09-28T01:16:07;1.50;;;0.65;;
72194;SDS011;60095;50.180;9.032;2022-09-28T01:18:39;3.85;;;1.98;;
72194;SDS011;60095;50.180;9.032;2022-09-28T01:21:09;2.25;;;1.20;;
72194;SDS011;60095;50.180;9.032;2022-09-28T01:23:42;2.35;;;1.75;;
72194;SDS011;60095;50.180;9.032;2022-09-28T01:26:30;1.42;;;0.98;;
72194;SDS011;60095;50.180;9.032;2022-09-28T01:29:01;1.10;;;0.77;;
72194;SDS011;60095;50.180;9.032;2022-09-28T01:31:30;3.30;;;1.67;;
72194;SDS011;60095;50.180;9.032;2022-09-28T01:33:58;1.25;;;0.90;;
72194;SDS011;60095;50.180;9.032;2022-09-28T01:36:26;2.25;;;1.67;;
72194;SDS011;60095;50.180;9.032;2022-09-28T01:38:55;3.90;;;2.13;;
72194;SDS011;60095;50.180;9.032;2022-09-28T01:41:25;0.70;;;0.65;;
72194;SDS011;60095;50.180;9.032;2022-09-28T01:43:55;3.25;;;0.70;;
72194;SDS011;60095;50.180;9.032;2022-09-28T01:46:24;2.38;;;1.38;;
72194;SDS011;60095;50.180;9.032;2022-09-28T01:48:53;4.43;;;2.03;;
72194;SDS011;60095;50.180;9.032;2022-09-28T01:51:24;0.68;;;0.68;;
72194;SDS011;60095;50.180;9.032;2022-09-28T01:53:54;13.13;;;1.05;;
72194;SDS011;60095;50.180;9.032;2022-09-28T01:56:22;0.80;;;0.77;;
72194;SDS011;60095;50.180;9.032;2022-09-28T01:58:52;5.50;;;1.02;;
72194;SDS011;60095;50.180;9.032;2022-09-28T02:01:23;0.80;;;0.68;;
72194;SDS011;60095;50.180;9.032;2022-09-28T02:03:51;1.55;;;0.90;;
72194;SDS011;60095;50.180;9.032;2022-09-28T02:06:21;0.47;;;0.43;;
72194;SDS011;60095;50.180;9.032;2022-09-28T02:08:50;0.70;;;0.70;;
72194;SDS011;60095;50.180;9.032;2022-09-28T02:11:19;5.80;;;1.27;;
72194;SDS011;60095;50.180;9.032;2022-09-28T02:13:46;2.38;;;1.83;;
72194;SDS011;60095;50.180;9.032;2022-09-28T02:16:15;1.55;;;1.40;;
72194;SDS011;60095;50.180;9.032;2022-09-28T02:18:43;0.90;;;0.70;;
72194;SDS011;60095;50.180;9.032;2022-09-28T02:21:11;2.95;;;1.95;;
72194;SDS011;60095;50.180;9.032;2022-09-28T02:23:38;1.75;;;1.55;;
72194;SDS011;60095;50.180;9.032;2022-09-28T02:26:07;1.23;;;0.88;;
72194;SDS011;60095;50.180;9.032;2022-09-28T02:28:35;1.30;;;0.88;;
72194;SDS011;60095;50.180;9.032;2022-09-28T02:31:01;2.15;;;1.17;;
72194;SDS011;60095;50.180;9.032;2022-09-28T02:33:29;1.58;;;1.13;;
72194;SDS011;60095;50.180;9.032;2022-09-28T02:35:58;1.13;;;1.02;;
72194;SDS011;60095;50.180;9.032;2022-09-28T02:38:25;1.77;;;1.45;;
72194;SDS011;60095;50.180;9.032;2022-09-28T02:40:53;3.13;;;1.50;;
72194;SDS011;60095;50.180;9.032;2022-09-28T02:43:22;2.38;;;1.38;;
72194;SDS011;60095;50.180;9.032;2022-09-28T02:45:51;2.00;;;1.58;;
72194;SDS011;60095;50.180;9.032;2022-09-28T02:48:27;1.38;;;1.10;;
72194;SDS011;60095;50.180;9.032;2022-09-28T02:50:58;1.70;;;1.58;;
72194;SDS011;60095;50.180;9.032;2022-09-28T02:53:40;1.45;;;1.35;;
72194;SDS011;60095;50.180;9.032;2022-09-28T02:56:21;4.13;;;2.03;;
72194;SDS011;60095;50.180;9.032;2022-09-28T02:58:51;2.90;;;1.52;;
72194;SDS011;60095;50.180;9.032;2022-09-28T03:01:23;1.80;;;1.00;;
72194;SDS011;60095;50.180;9.032;2022-09-28T03:03:52;2.20;;;1.90;;
72194;SDS011;60095;50.180;9.032;2022-09-28T03:06:23;3.47;;;1.40;;
72194;SDS011;60095;50.180;9.032;2022-09-28T03:08:53;1.77;;;1.35;;
72194;SDS011;60095;50.180;9.032;2022-09-28T03:11:23;1.92;;;1.38;;
72194;SDS011;60095;50.180;9.032;2022-09-28T03:13:50;3.70;;;1.08;;
72194;SDS011;60095;50.180;9.032;2022-09-28T03:16:17;4.32;;;1.08;;
72194;SDS011;60095;50.180;9.032;2022-09-28T03:18:44;7.22;;;0.73;;
72194;SDS011;60095;50.180;9.032;2022-09-28T03:21:11;0.93;;;0.52;;
72194;SDS011;60095;50.180;9.032;2022-09-28T03:23:39;1.05;;;0.52;;
72194;SDS011;60095;50.180;9.032;2022-09-28T03:26:06;0.43;;;0.30;;
72194;SDS011;60095;50.180;9.032;2022-09-28T03:28:32;1.25;;;0.82;;
72194;SDS011;60095;50.180;9.032;2022-09-28T03:31:00;0.68;;;0.22;;
72194;SDS011;60095;50.180;9.032;2022-09-28T03:33:26;0.50;;;0.35;;
72194;SDS011;60095;50.180;9.032;2022-09-28T03:35:52;1.75;;;0.52;;
72194;SDS011;60095;50.180;9.032;2022-09-28T03:38:19;1.08;;;0.43;;
72194;SDS011;60095;50.180;9.032;2022-09-28T03:40:52;1.20;;;0.65;;
72194;SDS011;60095;50.180;9.032;2022-09-28T03:43:18;1.25;;;1.10;;
72194;SDS011;60095;50.180;9.032;2022-09-28T03:45:49;1.63;;;0.80;;
72194;SDS011;60095;50.180;9.032;2022-09-28T03:48:16;1.23;;;0.57;;
72194;SDS011;60095;50.180;9.032;2022-09-28T03:50:42;1.13;;;0.88;;
72194;SDS011;60095;50.180;9.032;2022-09-28T03:53:08;1.17;;;1.00;;
72194;SDS011;60095;50.180;9.032;2022-09-28T03:55:35;0.35;;;0.35;;
72194;SDS011;60095;50.180;9.032;2022-09-28T03:58:03;2.72;;;1.38;;
72194;SDS011;60095;50.180;9.032;2022-09-28T04:00:29;1.25;;;0.77;;
72194;SDS011;60095;50.180;9.032;2022-09-28T04:02:56;0.88;;;0.68;;
72194;SDS011;60095;50.180;9.032;2022-09-28T04:05:22;2.13;;;1.38;;
72194;SDS011;60095;50.180;9.032;2022-09-28T04:07:48;1.52;;;0.30;;
72194;SDS011;60095;50.180;9.032;2022-09-28T04:10:15;1.17;;;0.82;;
72194;SDS011;60095;50.180;9.032;2022-09-28T04:12:41;2.83;;;0.65;;
72194;SDS011;60095;50.180;9.032;2022-09-28T04:15:10;1.42;;;0.90;;
72194;SDS011;60095;50.180;9.032;2022-09-28T04:17:36;2.28;;;0.43;;
72194;SDS011;60095;50.180;9.032;2022-09-28T04:20:04;2.55;;;0.98;;
72194;SDS011;60095;50.180;9.032;2022-09-28T04:22:31;0.98;;;0.70;;
72194;SDS011;60095;50.180;9.032;2022-09-28T04:24:57;0.75;;;0.57;;
72194;SDS011;60095;50.180;9.032;2022-09-28T04:27:23;0.75;;;0.40;;
72194;SDS011;60095;50.180;9.032;2022-09-28T04:30:10;1.13;;;0.75;;
72194;SDS011;60095;50.180;9.032;2022-09-28T04:32:36;1.58;;;1.02;;
72194;SDS011;60095;50.180;9.032;2022-09-28T04:35:03;0.80;;;0.68;;
72194;SDS011;60095;50.180;9.032;2022-09-28T04:37:29;0.90;;;0.60;;
72194;SDS011;60095;50.180;9.032;2022-09-28T04:39:56;0.40;;;0.15;;
72194;SDS011;60095;50.180;9.032;2022-09-28T04:42:22;0.77;;;0.50;;
72194;SDS011;60095;50.180;9.032;2022-09-28T04:44:48;0.80;;;0.65;;
72194;SDS011;60095;50.180;9.032;2022-09-28T04:47:16;0.20;;;0.20;;
72194;SDS011;60095;50.180;9.032;2022-09-28T04:49:42;1.85;;;0.95;;
72194;SDS011;60095;50.180;9.032;2022-09-28T04:52:08;0.55;;;0.52;;
72194;SDS011;60095;50.180;9.032;2022-09-28T04:54:35;0.77;;;0.70;;
72194;SDS011;60095;50.180;9.032;2022-09-28T04:57:01;1.17;;;0.57;;
72194;SDS011;60095;50.180;9.032;2022-09-28T04:59:30;1.60;;;1.30;;
72194;SDS011;60095;50.180;9.032;2022-09-28T05:01:56;1.00;;;0.90;;
72194;SDS011;60095;50.180;9.032;2022-09-28T05:04:23;1.42;;;1.15;;
72194;SDS011;60095;50.180;9.032;2022-09-28T05:06:50;1.17;;;1.00;;
72194;SDS011;60095;50.180;9.032;2022-09-28T05:09:16;0.90;;;0.82;;
72194;SDS011;60095;50.180;9.032;2022-09-28T05:11:43;0.77;;;0.57;;
72194;SDS011;60095;50.180;9.032;2022-09-28T05:14:09;0.63;;;0.63;;
72194;SDS011;60095;50.180;9.032;2022-09-28T05:16:35;1.20;;;0.93;;
72194;SDS011;60095;50.180;9.032;2022-09-28T05:19:02;0.55;;;0.32;;
72194;SDS011;60095;50.180;9.032;2022-09-28T05:21:31;0.55;;;0.35;;
72194;SDS011;60095;50.180;9.032;2022-09-28T05:23:57;1.20;;;0.77;;
72194;SDS011;60095;50.180;9.032;2022-09-28T05:26:24;0.77;;;0.65;;
72194;SDS011;60095;50.180;9.032;2022-09-28T05:28:50;0.90;;;0.55;;
72194;SDS011;60095;50.180;9.032;2022-09-28T05:31:16;1.27;;;0.60;;
72194;SDS011;60095;50.180;9.032;2022-09-28T05:33:43;0.80;;;0.77;;
72194;SDS011;60095;50.180;9.032;2022-09-28T05:36:09;0.68;;;0.60;;
72194;SDS011;60095;50.180;9.032;2022-09-28T05:38:37;2.35;;;0.73;;
72194;SDS011;60095;50.180;9.032;2022-09-28T05:41:03;1.45;;;0.98;;
72194;SDS011;60095;50.180;9.032;2022-09-28T05:43:30;6.85;;;1.65;;
72194;SDS011;60095;50.180;9.032;2022-09-28T05:45:57;2.00;;;1.75;;
72194;SDS011;60095;50.180;9.032;2022-09-28T05:48:23;1.25;;;1.00;;
72194;SDS011;60095;50.180;9.032;2022-09-28T05:50:50;2.30;;;1.80;;
72194;SDS011;60095;50.180;9.032;2022-09-28T05:53:17;5.22;;;1.13;;
72194;SDS011;60095;50.180;9.032;2022-09-28T05:55:45;2.25;;;1.02;;
72194;SDS011;60095;50.180;9.032;2022-09-28T05:58:11;4.18;;;1.92;;
72194;SDS011;60095;50.180;9.032;2022-09-28T06:00:38;4.10;;;1.83;;
72194;SDS011;60095;50.180;9.032;2022-09-28T06:03:05;6.35;;;1.52;;
72194;SDS011;60095;50.180;9.032;2022-09-28T06:05:32;0.98;;;0.63;;
72194;SDS011;60095;50.180;9.032;2022-09-28T06:08:00;1.92;;;1.40;;
72194;SDS011;60095;50.180;9.032;2022-09-28T06:10:28;0.80;;;0.80;;
72194;SDS011;60095;50.180;9.032;2022-09-28T06:12:56;4.22;;;1.88;;
72194;SDS011;60095;50.180;9.032;2022-09-28T06:15:24;2.05;;;1.75;;
72194;SDS011;60095;50.180;9.032;2022-09-28T06:17:54;0.93;;;0.77;;
72194;SDS011;60095;50.180;9.032;2022-09-28T06:20:21;2.08;;;1.52;;
72194;SDS011;60095;50.180;9.032;2022-09-28T06:22:49;1.52;;;1.27;;
72194;SDS011;60095;50.180;9.032;2022-09-28T06:25:15;1.77;;;1.13;;
72194;SDS011;60095;50.180;9.032;2022-09-28T06:27:41;5.60;;;3.00;;
72194;SDS011;60095;50.180;9.032;2022-09-28T06:30:09;2.17;;;1.38;;
72194;SDS011;60095;50.180;9.032;2022-09-28T06:32:36;2.70;;;1.63;;
72194;SDS011;60095;50.180;9.032;2022-09-28T06:35:02;8.85;;;1.27;;
72194;SDS011;60095;50.180;9.032;2022-09-28T06:37:29;1.00;;;0.60;;
72194;SDS011;60095;50.180;9.032;2022-09-28T06:39:57;3.03;;;0.95;;
72194;SDS011;60095;50.180;9.032;2022-09-28T06:42:23;2.35;;;1.30;;
72194;SDS011;60095;50.180;9.032;2022-09-28T06:44:49;1.77;;;0.80;;
72194;SDS011;60095;50.180;9.032;2022-09-28T06:47:17;1.38;;;0.82;;
72194;SDS011;60095;50.180;9.032;2022-09-28T06:49:43;1.88;;;1.00;;
72194;SDS011;60095;50.180;9.032;2022-09-28T06:52:11;5.07;;;1.60;;
72194;SDS011;60095;50.180;9.032;2022-09-28T06:54:38;2.30;;;1.52;;
72194;SDS011;60095;50.180;9.032;2022-09-28T06:57:04;5.60;;;1.98;;
72194;SDS011;60095;50.180;9.032;2022-09-28T06:59:30;6.65;;;1.40;;
72194;SDS011;60095;50.180;9.032;2022-09-28T07:01:57;2.05;;;1.85;;
72194;SDS011;60095;50.180;9.032;2022-09-28T07:04:25;12.82;;;2.38;;
72194;SDS011;60095;50.180;9.032;2022-09-28T07:06:51;1.92;;;1.00;;
72194;SDS011;60095;50.180;9.032;2022-09-28T07:09:18;1.23;;;0.80;;
72194;SDS011;60095;50.180;9.032;2022-09-28T07:11:44;1.77;;;0.95;;
72194;SDS011;60095;50.180;9.032;2022-09-28T07:14:12;1.75;;;1.25;;
72194;SDS011;60095;50.180;9.032;2022-09-28T07:16:39;1.67;;;1.20;;
72194;SDS011;60095;50.180;9.032;2022-09-28T07:19:05;5.60;;;2.58;;
72194;SDS011;60095;50.180;9.032;2022-09-28T07:21:32;2.78;;;1.67;;
72194;SDS011;60095;50.180;9.032;2022-09-28T07:23:59;1.45;;;1.35;;
72194;SDS011;60095;50.180;9.032;2022-09-28T07:26:25;1.55;;;1.25;;
72194;SDS011;60095;50.180;9.032;2022-09-28T07:28:52;9.30;;;1.42;;
72194;SDS011;60095;50.180;9.032;2022-09-28T07:31:19;2.80;;;1.70;;
72194;SDS011;60095;50.180;9.032;2022-09-28T07:33:49;5.35;;;1.90;;
72194;SDS011;60095;50.180;9.032;2022-09-28T07:36:16;1.85;;;1.73;;
72194;SDS011;60095;50.180;9.032;2022-09-28T07:38:46;9.93;;;2.42;;
72194;SDS011;60095;50.180;9.032;2022-09-28T07:41:12;2.28;;;1.83;;
72194;SDS011;60095;50.180;9.032;2022-09-28T07:43:39;3.42;;;1.55;;
72194;SDS011;60095;50.180;9.032;2022-09-28T07:46:06;4.00;;;1.85;;
72194;SDS011;60095;50.180;9.032;2022-09-28T07:48:35;4.03;;;1.65;;
72194;SDS011;60095;50.180;9.032;2022-09-28T07:51:02;1.35;;;1.25;;
72194;SDS011;60095;50.180;9.032;2022-09-28T07:53:28;2.45;;;1.65;;
72194;SDS011;60095;50.180;9.032;2022-09-28T07:55:57;2.05;;;1.25;;
72194;SDS011;60095;50.180;9.032;2022-09-28T07:58:26;0.82;;;0.82;;
72194;SDS011;60095;50.180;9.032;2022-09-28T08:00:52;3.40;;;1.98;;
72194;SDS011;60095;50.180;9.032;2022-09-28T08:03:19;2.00;;;1.25;;
72194;SDS011;60095;50.180;9.032;2022-09-28T08:05:46;4.15;;;2.05;;
72194;SDS011;60095;50.180;9.032;2022-09-28T08:08:12;2.28;;;1.98;;
72194;SDS011;60095;50.180;9.032;2022-09-28T08:10:41;1.77;;;1.65;;
72194;SDS011;60095;50.180;9.032;2022-09-28T08:13:08;1.70;;;1.40;;
72194;SDS011;60095;50.180;9.032;2022-09-28T08:15:34;3.92;;;2.13;;
72194;SDS011;60095;50.180;9.032;2022-09-28T08:18:02;3.97;;;3.08;;
72194;SDS011;60095;50.180;9.032;2022-09-28T08:20:29;2.75;;;2.15;;
72194;SDS011;60095;50.180;9.032;2022-09-28T08:23:13;7.32;;;2.08;;
72194;SDS011;60095;50.180;9.032;2022-09-28T08:25:39;2.08;;;1.73;;
72194;SDS011;60095;50.180;9.032;2022-09-28T08:28:05;2.65;;;1.67;;
72194;SDS011;60095;50.180;9.032;2022-09-28T08:30:33;1.75;;;1.60;;
72194;SDS011;60095;50.180;9.032;2022-09-28T08:33:00;3.88;;;0.90;;
72194;SDS011;60095;50.180;9.032;2022-09-28T08:35:26;1.27;;;0.82;;
72194;SDS011;60095;50.180;9.032;2022-09-28T08:37:52;7.05;;;1.20;;
72194;SDS011;60095;50.180;9.032;2022-09-28T08:40:20;0.80;;;0.63;;
72194;SDS011;60095;50.180;9.032;2022-09-28T08:42:48;0.45;;;0.38;;
72194;SDS011;60095;50.180;9.032;2022-09-28T08:45:17;1.17;;;0.88;;
72194;SDS011;60095;50.180;9.032;2022-09-28T08:47:48;0.80;;;0.70;;
72194;SDS011;60095;50.180;9.032;2022-09-28T08:50:34;0.95;;;0.73;;
72194;SDS011;60095;50.180;9.032;2022-09-28T08:53:02;1.92;;;1.13;;
72194;SDS011;60095;50.180;9.032;2022-09-28T08:55:31;0.85;;;0.60;;
72194;SDS011;60095;50.180;9.032;2022-09-28T08:57:59;1.02;;;0.60;;
72194;SDS011;60095;50.180;9.032;2022-09-28T09:00:30;0.80;;;0.40;;
72194;SDS011;60095;50.180;9.032;2022-09-28T09:02:58;1.92;;;1.08;;
72194;SDS011;60095;50.180;9.032;2022-09-28T09:08:20;0.60;;;0.35;;
72194;SDS011;60095;50.180;9.032;2022-09-28T09:10:49;0.80;;;0.68;;
72194;SDS011;60095;50.180;9.032;2022-09-28T09:13:25;1.35;;;0.85;;
72194;SDS011;60095;50.180;9.032;2022-09-28T09:15:59;5.15;;;0.80;;
72194;SDS011;60095;50.180;9.032;2022-09-28T09:18:31;0.88;;;0.73;;
72194;SDS011;60095;50.180;9.032;2022-09-28T09:21:02;1.33;;;0.93;;
72194;SDS011;60095;50.180;9.032;2022-09-28T09:23:34;0.43;;;0.43;;
72194;SDS011;60095;50.180;9.032;2022-09-28T09:26:03;1.05;;;0.73;;
72194;SDS011;60095;50.180;9.032;2022-09-28T09:28:36;0.93;;;0.93;;
72194;SDS011;60095;50.180;9.032;2022-09-28T09:31:10;2.00;;;0.20;;
72194;SDS011;60095;50.180;9.032;2022-09-28T09:33:50;0.60;;;0.35;;
72194;SDS011;60095;50.180;9.032;2022-09-28T09:36:23;11.88;;;1.75;;
72194;SDS011;60095;50.180;9.032;2022-09-28T09:38:55;3.00;;;1.27;;
72194;SDS011;60095;50.180;9.032;2022-09-28T09:41:27;2.08;;;0.85;;
72194;SDS011;60095;50.180;9.032;2022-09-28T09:44:07;0.32;;;0.22;;
72194;SDS011;60095;50.180;9.032;2022-09-28T09:46:36;0.95;;;0.40;;
72194;SDS011;60095;50.180;9.032;2022-09-28T09:49:07;0.55;;;0.32;;
72194;SDS011;60095;50.180;9.032;2022-09-28T09:51:38;0.40;;;0.30;;
72194;SDS011;60095;50.180;9.032;2022-09-28T09:54:08;0.73;;;0.52;;
72194;SDS011;60095;50.180;9.032;2022-09-28T09:56:37;0.22;;;0.17;;
72194;SDS011;60095;50.180;9.032;2022-09-28T09:59:05;0.77;;;0.40;;
72194;SDS011;60095;50.180;9.032;2022-09-28T10:01:33;2.58;;;1.08;;
72194;SDS011;60095;50.180;9.032;2022-09-28T10:04:00;0.30;;;0.20;;
72194;SDS011;60095;50.180;9.032;2022-09-28T10:06:30;0.40;;;0.32;;
72194;SDS011;60095;50.180;9.032;2022-09-28T10:09:00;0.28;;;0.08;;
72194;SDS011;60095;50.180;9.032;2022-09-28T10:11:30;0.40;;;0.28;;
72194;SDS011;60095;50.180;9.032;2022-09-28T10:13:58;2.40;;;0.75;;
72194;SDS011;60095;50.180;9.032;2022-09-28T10:16:24;1.98;;;0.98;;
72194;SDS011;60095;50.180;9.032;2022-09-28T10:18:51;5.47;;;0.70;;
72194;SDS011;60095;50.180;9.032;2022-09-28T10:21:19;0.25;;;0.20;;
72194;SDS011;60095;50.180;9.032;2022-09-28T10:23:47;1.67;;;0.75;;
72194;SDS011;60095;50.180;9.032;2022-09-28T10:26:17;0.30;;;0.13;;
72194;SDS011;60095;50.180;9.032;2022-09-28T10:28:50;0.32;;;0.10;;
72194;SDS011;60095;50.180;9.032;2022-09-28T10:31:35;0.98;;;0.35;;
72194;SDS011;60095;50.180;9.032;2022-09-28T10:34:02;0.73;;;0.40;;
72194;SDS011;60095;50.180;9.032;2022-09-28T10:36:28;0.80;;;0.30;;
72194;SDS011;60095;50.180;9.032;2022-09-28T10:39:03;0.08;;;0.08;;
72194;SDS011;60095;50.180;9.032;2022-09-28T10:41:30;0.20;;;0.20;;
72194;SDS011;60095;50.180;9.032;2022-09-28T10:43:57;0.52;;;0.47;;
72194;SDS011;60095;50.180;9.032;2022-09-28T10:46:31;0.25;;;0.20;;
72194;SDS011;60095;50.180;9.032;2022-09-28T10:48:58;0.43;;;0.30;;
72194;SDS011;60095;50.180;9.032;2022-09-28T10:51:38;0.10;;;0.10;;
72194;SDS011;60095;50.180;9.032;2022-09-28T10:54:09;0.77;;;0.63;;
72194;SDS011;60095;50.180;9.032;2022-09-28T10:56:38;0.30;;;0.22;;
72194;SDS011;60095;50.180;9.032;2022-09-28T10:59:06;0.63;;;0.52;;
72194;SDS011;60095;50.180;9.032;2022-09-28T11:01:47;1.55;;;0.65;;
72194;SDS011;60095;50.180;9.032;2022-09-28T11:04:18;1.02;;;0.35;;
72194;SDS011;60095;50.180;9.032;2022-09-28T11:06:45;0.13;;;0.10;;
72194;SDS011;60095;50.180;9.032;2022-09-28T11:09:21;0.32;;;0.20;;
72194;SDS011;60095;50.180;9.032;2022-09-28T11:11:49;0.40;;;0.17;;
72194;SDS011;60095;50.180;9.032;2022-09-28T11:14:19;0.38;;;0.25;;
72194;SDS011;60095;50.180;9.032;2022-09-28T11:16:51;0.52;;;0.30;;
72194;SDS011;60095;50.180;9.032;2022-09-28T11:19:38;3.33;;;1.00;;
72194;SDS011;60095;50.180;9.032;2022-09-28T11:22:18;1.13;;;1.00;;
72194;SDS011;60095;50.180;9.032;2022-09-28T11:24:46;1.98;;;0.50;;
72194;SDS011;60095;50.180;9.032;2022-09-28T11:27:17;0.45;;;0.30;;
72194;SDS011;60095;50.180;9.032;2022-09-28T11:29:45;8.82;;;0.93;;
72194;SDS011;60095;50.180;9.032;2022-09-28T11:32:19;0.57;;;0.40;;
72194;SDS011;60095;50.180;9.032;2022-09-28T11:34:46;0.65;;;0.28;;
72194;SDS011;60095;50.180;9.032;2022-09-28T11:37:31;2.10;;;0.20;;
72194;SDS011;60095;50.180;9.032;2022-09-28T11:40:02;0.70;;;0.35;;
72194;SDS011;60095;50.180;9.032;2022-09-28T11:42:33;0.20;;;0.10;;
72194;SDS011;60095;50.180;9.032;2022-09-28T11:45:08;0.38;;;0.10;;
72194;SDS011;60095;50.180;9.032;2022-09-28T11:47:41;2.33;;;0.28;;
72194;SDS011;60095;50.180;9.032;2022-09-28T11:50:15;0.38;;;0.30;;
72194;SDS011;60095;50.180;9.032;2022-09-28T11:52:45;0.10;;;0.10;;
72194;SDS011;60095;50.180;9.032;2022-09-28T11:55:18;0.77;;;0.30;;
72194;SDS011;60095;50.180;9.032;2022-09-28T11:57:47;0.10;;;0.10;;
72194;SDS011;60095;50.180;9.032;2022-09-28T12:00:17;0.00;;;0.00;;
72194;SDS011;60095;50.180;9.032;2022-09-28T12:02:45;0.52;;;0.30;;
72194;SDS011;60095;50.180;9.032;2022-09-28T12:05:15;0.35;;;0.20;;
72194;SDS011;60095;50.180;9.032;2022-09-28T12:07:44;0.60;;;0.22;;
72194;SDS011;60095;50.180;9.032;2022-09-28T12:10:13;2.55;;;1.17;;
72194;SDS011;60095;50.180;9.032;2022-09-28T12:12:46;0.32;;;0.17;;
72194;SDS011;60095;50.180;9.032;2022-09-28T12:15:13;0.25;;;0.15;;
72194;SDS011;60095;50.180;9.032;2022-09-28T12:17:41;2.67;;;0.55;;
72194;SDS011;60095;50.180;9.032;2022-09-28T12:20:10;4.60;;;0.47;;
72194;SDS011;60095;50.180;9.032;2022-09-28T12:22:42;0.68;;;0.28;;
72194;SDS011;60095;50.180;9.032;2022-09-28T12:25:11;0.47;;;0.40;;
72194;SDS011;60095;50.180;9.032;2022-09-28T12:27:39;1.60;;;0.95;;
72194;SDS011;60095;50.180;9.032;2022-09-28T12:30:12;0.10;;;0.10;;
72194;SDS011;60095;50.180;9.032;2022-09-28T12:32:41;0.43;;;0.28;;
72194;SDS011;60095;50.180;9.032;2022-09-28T12:35:11;0.80;;;0.25;;
72194;SDS011;60095;50.180;9.032;2022-09-28T12:37:43;0.52;;;0.40;;
72194;SDS011;60095;50.180;9.032;2022-09-28T12:40:23;0.30;;;0.20;;
72194;SDS011;60095;50.180;9.032;2022-09-28T12:42:58;0.10;;;0.10;;
72194;SDS011;60095;50.180;9.032;2022-09-28T12:45:35;0.43;;;0.20;;
72194;SDS011;60095;50.180;9.032;2022-09-28T12:48:12;1.30;;;0.52;;
72194;SDS011;60095;50.180;9.032;2022-09-28T12:50:42;1.85;;;0.50;;
72194;SDS011;60095;50.180;9.032;2022-09-28T12:53:18;0.63;;;0.40;;
72194;SDS011;60095;50.180;9.032;2022-09-28T12:55:51;0.65;;;0.45;;
72194;SDS011;60095;50.180;9.032;2022-09-28T12:58:23;1.48;;;0.70;;
72194;SDS011;60095;50.180;9.032;2022-09-28T13:00:57;0.40;;;0.28;;
72194;SDS011;60095;50.180;9.032;2022-09-28T13:03:32;0.93;;;0.57;;
72194;SDS011;60095;50.180;9.032;2022-09-28T13:06:22;0.70;;;0.30;;
72194;SDS011;60095;50.180;9.032;2022-09-28T13:08:53;0.55;;;0.15;;
72194;SDS011;60095;50.180;9.032;2022-09-28T13:11:24;0.20;;;0.20;;
72194;SDS011;60095;50.180;9.032;2022-09-28T13:13:56;0.52;;;0.30;;
72194;SDS011;60095;50.180;9.032;2022-09-28T13:16:29;0.43;;;0.30;;
72194;SDS011;60095;50.180;9.032;2022-09-28T13:18:57;0.52;;;0.35;;
72194;SDS011;60095;50.180;9.032;2022-09-28T13:21:27;16.13;;;1.08;;
72194;SDS011;60095;50.180;9.032;2022-09-28T13:23:57;0.20;;;0.10;;
72194;SDS011;60095;50.180;9.032;2022-09-28T13:26:25;0.13;;;0.10;;
72194;SDS011;60095;50.180;9.032;2022-09-28T13:28:53;0.10;;;0.10;;
72194;SDS011;60095;50.180;9.032;2022-09-28T13:31:21;0.55;;;0.28;;
72194;SDS011;60095;50.180;9.032;2022-09-28T13:33:51;0.80;;;0.57;;
72194;SDS011;60095;50.180;9.032;2022-09-28T13:36:37;1.20;;;0.50;;
72194;SDS011;60095;50.180;9.032;2022-09-28T13:41:46;0.45;;;0.40;;
72194;SDS011;60095;50.180;9.032;2022-09-28T13:44:23;1.08;;;0.47;;
72194;SDS011;60095;50.180;9.032;2022-09-28T13:49:47;3.92;;;0.65;;
72194;SDS011;60095;50.180;9.032;2022-09-28T13:52:22;1.35;;;0.43;;
72194;SDS011;60095;50.180;9.032;2022-09-28T13:54:57;0.30;;;0.20;;
72194;SDS011;60095;50.180;9.032;2022-09-28T13:57:28;0.60;;;0.43;;
72194;SDS011;60095;50.180;9.032;2022-09-28T13:59:59;0.82;;;0.50;;
72194;SDS011;60095;50.180;9.032;2022-09-28T14:02:29;2.30;;;0.90;;
72194;SDS011;60095;50.180;9.032;2022-09-28T14:04:58;1.75;;;0.50;;
72194;SDS011;60095;50.180;9.032;2022-09-28T14:07:25;0.30;;;0.10;;
72194;SDS011;60095;50.180;9.032;2022-09-28T14:10:13;0.13;;;0.10;;
72194;SDS011;60095;50.180;9.032;2022-09-28T14:12:43;1.48;;;0.85;;
72194;SDS011;60095;50.180;9.032;2022-09-28T14:17:57;0.32;;;0.20;;
72194;SDS011;60095;50.180;9.032;2022-09-28T14:20:27;0.05;;;0.00;;
72194;SDS011;60095;50.180;9.032;2022-09-28T14:23:09;0.08;;;0.08;;
72194;SDS011;60095;50.180;9.032;2022-09-28T14:25:39;0.10;;;0.10;;
72194;SDS011;60095;50.180;9.032;2022-09-28T14:28:11;0.22;;;0.20;;
72194;SDS011;60095;50.180;9.032;2022-09-28T14:30:45;0.57;;;0.57;;
72194;SDS011;60095;50.180;9.032;2022-09-28T14:33:20;1.55;;;0.68;;
72194;SDS011;60095;50.180;9.032;2022-09-28T14:35:49;1.85;;;0.68;;
72194;SDS011;60095;50.180;9.032;2022-09-28T14:38:18;2.50;;;1.08;;
72194;SDS011;60095;50.180;9.032;2022-09-28T14:43:35;0.47;;;0.35;;
72194;SDS011;60095;50.180;9.032;2022-09-28T14:48:47;0.30;;;0.30;;
72194;SDS011;60095;50.180;9.032;2022-09-28T14:54:01;0.32;;;0.28;;
72194;SDS011;60095;50.180;9.032;2022-09-28T14:56:29;0.60;;;0.30;;
72194;SDS011;60095;50.180;9.032;2022-09-28T14:58:56;0.03;;;0.00;;
72194;SDS011;60095;50.180;9.032;2022-09-28T15:01:24;2.75;;;0.57;;
72194;SDS011;60095;50.180;9.032;2022-09-28T15:03:51;0.13;;;0.10;;
72194;SDS011;60095;50.180;9.032;2022-09-28T15:06:21;0.77;;;0.45;;
72194;SDS011;60095;50.180;9.032;2022-09-28T15:08:47;0.65;;;0.45;;
72194;SDS011;60095;50.180;9.032;2022-09-28T15:11:15;0.50;;;0.40;;
72194;SDS011;60095;50.180;9.032;2022-09-28T15:13:43;0.15;;;0.15;;
72194;SDS011;60095;50.180;9.032;2022-09-28T15:16:11;0.70;;;0.32;;
72194;SDS011;60095;50.180;9.032;2022-09-28T15:21:18;0.47;;;0.28;;
72194;SDS011;60095;50.180;9.032;2022-09-28T15:23:45;4.28;;;0.50;;
72194;SDS011;60095;50.180;9.032;2022-09-28T15:26:23;0.47;;;0.10;;